Time;durP1;ratioP1;P1;durP2;ratioP2;P2;SDS_P1;SDS_P2;PMS_P1;PMS_P2;Temp;Humidity;BMP_temperature;BMP_pressure;BME280_temperature;BME280_humidity;BME280_pressure;Samples;Min_cycle;Max_cycle;Signal;HPM_P1;HPM_P2
2023/09/01 09:14:15;;;;;;;;;3.20;2.80;;;;;;;;5103696;27;13540;-71
2023/09/01 09:16:50;;;;;;;;;3.00;3.00;;;;;;;;5105709;28;8810;-71
2023/09/01 09:19:18;;;;;;;;;1.80;1.80;;;;;;;;5089631;28;8816;-70
2023/09/01 09:21:44;;;;;;;;;3.00;3.00;;;;;;;;5086567;28;8834;-73
2023/09/01 09:24:09;;;;;;;;;3.50;2.50;;;;;;;;5086603;28;9612;-71
2023/09/01 09:26:34;;;;;;;;;5.00;2.25;;;;;;;;5086292;28;8871;-68
2023/09/01 09:29:08;;;;;;;;;2.00;2.00;;;;;;;;5085092;28;9603;-70
2023/09/01 09:31:36;;;;;;;;;1.20;1.20;;;;;;;;5091893;28;8829;-68
2023/09/01 09:34:15;;;;;;;;;4.00;2.80;;;;;;;;5103737;28;8957;-68
2023/09/01 09:36:41;;;;;;;;;1.80;1.80;;;;;;;;5106742;28;8861;-69
2023/09/01 09:39:19;;;;;;;;;2.00;2.00;;;;;;;;5114710;27;8809;-68
2023/09/01 09:41:48;;;;;;;;;2.80;2.80;;;;;;;;5125372;27;8789;-68
2023/09/01 09:44:23;;;;;;;;;5.00;3.80;;;;;;;;5125329;27;8849;-68
2023/09/01 09:46:49;;;;;;;;;5.20;5.00;;;;;;;;5125381;27;9604;-69
2023/09/01 09:49:14;;;;;;;;;5.80;4.00;;;;;;;;5126828;27;8785;-67
2023/09/01 09:51:41;;;;;;;;;5.00;4.00;;;;;;;;5124823;27;8890;-67
2023/09/01 09:54:09;;;;;;;;;5.60;4.20;;;;;;;;5126835;27;9543;-68
2023/09/01 09:56:38;;;;;;;;;5.40;5.40;;;;;;;;5123167;27;8797;-68
2023/09/01 09:59:03;;;;;;;;;3.00;3.00;;;;;;;;5126842;27;9532;-67
2023/09/01 10:01:43;;;;;;;;;6.00;4.75;;;;;;;;5126479;27;8837;-68
2023/09/01 10:04:09;;;;;;;;;2.60;2.60;;;;;;;;5126636;27;8961;-67
2023/09/01 10:06:35;;;;;;;;;4.00;3.00;;;;;;;;5126811;27;8789;-67
2023/09/01 10:09:01;;;;;;;;;3.67;3.67;;;;;;;;5126766;27;8936;-68
2023/09/01 10:11:28;;;;;;;;;4.00;3.20;;;;;;;;5123546;27;8925;-67
2023/09/01 10:13:53;;;;;;;;;4.00;4.00;;;;;;;;5126511;27;8837;-69
2023/09/01 10:16:19;;;;;;;;;4.00;4.00;;;;;;;;5126541;27;8832;-68
2023/09/01 10:18:47;;;;;;;;;5.00;3.00;;;;;;;;5125152;27;8824;-68
2023/09/01 10:21:13;;;;;;;;;4.80;2.80;;;;;;;;5124652;27;8844;-68
2023/09/01 10:23:39;;;;;;;;;4.25;4.25;;;;;;;;5123414;27;8797;-67
2023/09/01 10:26:24;;;;;;;;;7.50;3.50;;;;;;;;5111152;28;9634;-67
2023/09/01 10:29:00;;;;;;;;;5.00;4.00;;;;;;;;5112238;28;8912;-67
2023/09/01 10:31:26;;;;;;;;;4.75;4.00;;;;;;;;5112359;28;8800;-67
2023/09/01 10:34:03;;;;;;;;;4.00;4.00;;;;;;;;5112278;28;8844;-68
2023/09/01 10:36:28;;;;;;;;;3.50;3.50;;;;;;;;5107060;28;8807;-68
2023/09/01 10:38:53;;;;;;;;;9.33;7.00;;;;;;;;5092754;28;8920;-68
2023/09/01 10:41:38;;;;;;;;;9.33;6.33;;;;;;;;5091503;28;8792;-69
2023/09/01 10:44:04;;;;;;;;;8.00;7.25;;;;;;;;5111361;28;8837;-68
2023/09/01 10:46:29;;;;;;;;;4.00;4.00;;;;;;;;5110796;28;8817;-71
2023/09/01 10:48:58;;;;;;;;;5.00;5.00;;;;;;;;5112168;28;8797;-69
2023/09/01 10:51:25;;;;;;;;;4.50;4.00;;;;;;;;5112028;28;8832;-68
2023/09/01 10:53:52;;;;;;;;;5.00;5.00;;;;;;;;5099420;28;8827;-67
2023/09/01 10:56:19;;;;;;;;;6.00;5.25;;;;;;;;5091519;28;8838;-68
2023/09/01 10:58:44;;;;;;;;;4.75;3.75;;;;;;;;5091177;28;9640;-71
2023/09/01 11:01:31;;;;;;;;;3.00;3.00;;;;;;;;5086592;28;9021;-66
2023/09/01 11:04:16;;;;;;;;;4.25;4.00;;;;;;;;5091288;28;8825;-65
2023/09/01 11:06:57;;;;;;;;;5.50;5.50;;;;;;;;5091202;28;8784;-64
2023/09/01 11:09:34;;;;;;;;;4.25;4.00;;;;;;;;5102290;28;8832;-66
2023/09/01 11:12:00;;;;;;;;;4.50;4.00;;;;;;;;5098678;28;9598;-66
2023/09/01 11:14:25;;;;;;;;;5.00;5.00;;;;;;;;5080129;28;8881;-65
2023/09/01 11:16:50;;;;;;;;;3.67;3.00;;;;;;;;5071078;28;8798;-66
2023/09/01 11:19:16;;;;;;;;;5.33;3.33;;;;;;;;5071188;28;8794;-66
2023/09/01 11:21:41;;;;;;;;;4.00;3.67;;;;;;;;5072476;28;8790;-65
2023/09/01 11:24:06;;;;;;;;;5.33;5.00;;;;;;;;5090630;28;8903;-66
2023/09/01 11:26:32;;;;;;;;;4.00;3.00;;;;;;;;5090802;28;8772;-65
2023/09/01 11:28:58;;;;;;;;;7.00;4.00;;;;;;;;5089045;28;8926;-66
2023/09/01 11:31:23;;;;;;;;;3.00;3.00;;;;;;;;5088097;28;8827;-66
2023/09/01 11:33:52;;;;;;;;;4.67;4.00;;;;;;;;5088182;28;8866;-65
2023/09/01 11:36:18;;;;;;;;;5.00;4.00;;;;;;;;5085737;28;8822;-65
2023/09/01 11:38:43;;;;;;;;;3.67;3.67;;;;;;;;5091124;28;8808;-70
2023/09/01 11:41:14;;;;;;;;;6.00;4.00;;;;;;;;5089315;28;9195;-70
2023/09/01 11:43:40;;;;;;;;;4.25;4.25;;;;;;;;5089562;28;8795;-71
2023/09/01 11:46:06;;;;;;;;;4.25;3.00;;;;;;;;5090354;28;9541;-72
2023/09/01 11:48:31;;;;;;;;;5.67;5.33;;;;;;;;5090844;28;8804;-71
2023/09/01 11:50:58;;;;;;;;;3.67;3.67;;;;;;;;5090594;28;8800;-71
2023/09/01 11:53:29;;;;;;;;;3.50;3.50;;;;;;;;5089677;28;8909;-72
2023/09/01 11:55:58;;;;;;;;;5.00;4.50;;;;;;;;5087619;28;8877;-73
2023/09/01 11:58:33;;;;;;;;;6.75;5.00;;;;;;;;5090310;28;9007;-72
2023/09/01 12:01:11;;;;;;;;;6.00;4.75;;;;;;;;5088173;28;8780;-72
2023/09/01 12:03:37;;;;;;;;;11.00;10.00;;;;;;;;5088449;28;8780;-70
2023/09/01 12:06:13;;;;;;;;;6.25;6.00;;;;;;;;5090179;28;8776;-72
2023/09/01 12:08:38;;;;;;;;;9.00;8.00;;;;;;;;5093587;28;8813;-70
2023/09/01 12:11:05;;;;;;;;;11.67;9.00;;;;;;;;5110190;28;8757;-72
2023/09/01 12:13:31;;;;;;;;;4.75;4.00;;;;;;;;5083896;28;8840;-74
2023/09/01 12:16:02;;;;;;;;;4.00;4.00;;;;;;;;5070009;28;8802;-72
2023/09/01 12:18:28;;;;;;;;;7.00;5.00;;;;;;;;5070444;28;8790;-72
2023/09/01 12:20:53;;;;;;;;;8.67;8.67;;;;;;;;5070186;28;8907;-73
2023/09/01 12:23:32;;;;;;;;;9.00;9.00;;;;;;;;5069666;28;11097;-71
2023/09/01 12:25:57;;;;;;;;;6.00;6.00;;;;;;;;5069884;28;8794;-77
2023/09/01 12:28:24;;;;;;;;;5.00;5.00;;;;;;;;5069904;28;8779;-72
2023/09/01 12:30:50;;;;;;;;;5.25;4.75;;;;;;;;5068300;28;8802;-72
2023/09/01 12:33:15;;;;;;;;;4.00;4.00;;;;;;;;5070001;28;8830;-70
2023/09/01 12:35:40;;;;;;;;;9.00;7.67;;;;;;;;5108262;28;8805;-70
2023/09/01 12:38:06;;;;;;;;;4.67;4.33;;;;;;;;5109468;28;8781;-66
2023/09/01 12:40:31;;;;;;;;;5.67;4.00;;;;;;;;5102125;28;8789;-69
2023/09/01 12:42:56;;;;;;;;;5.00;4.67;;;;;;;;5087378;28;8811;-68
2023/09/01 12:45:21;;;;;;;;;5.33;4.00;;;;;;;;5088381;28;8907;-69
2023/09/01 12:47:47;;;;;;;;;4.67;4.67;;;;;;;;5088996;28;8827;-69
2023/09/01 12:50:12;;;;;;;;;8.33;6.00;;;;;;;;5087765;28;8878;-69
2023/09/01 12:52:37;;;;;;;;;6.00;5.67;;;;;;;;5089188;28;8831;-68
2023/09/01 12:55:02;;;;;;;;;4.67;4.67;;;;;;;;5088495;28;8816;-69
2023/09/01 12:57:28;;;;;;;;;6.00;5.00;;;;;;;;5088819;28;8804;-69
2023/09/01 12:59:53;;;;;;;;;5.33;4.00;;;;;;;;5088355;28;8846;-68
2023/09/01 13:02:18;;;;;;;;;8.00;6.67;;;;;;;;5089027;28;8800;-69
2023/09/01 13:04:44;;;;;;;;;5.00;5.00;;;;;;;;5088895;28;8820;-67
2023/09/01 13:07:11;;;;;;;;;6.00;6.00;;;;;;;;5088605;28;8788;-68
2023/09/01 13:09:36;;;;;;;;;6.00;6.00;;;;;;;;5101887;28;8781;-68
2023/09/01 13:12:02;;;;;;;;;8.00;6.67;;;;;;;;5109258;28;8866;-70
2023/09/01 13:14:27;;;;;;;;;8.00;8.00;;;;;;;;5109515;28;9514;-69
2023/09/01 13:16:52;;;;;;;;;4.00;4.00;;;;;;;;5110182;28;8770;-69
2023/09/01 13:19:17;;;;;;;;;6.67;5.33;;;;;;;;5109518;28;8940;-69
2023/09/01 13:21:43;;;;;;;;;11.33;11.33;;;;;;;;5109754;28;8908;-71
2023/09/01 13:24:08;;;;;;;;;15.67;14.00;;;;;;;;5109838;28;8820;-70
2023/09/01 13:26:33;;;;;;;;;21.25;20.00;;;;;;;;5106447;28;8816;-72
2023/09/01 13:28:59;;;;;;;;;11.00;10.00;;;;;;;;5088931;28;8792;-72
2023/09/01 13:31:24;;;;;;;;;7.67;7.33;;;;;;;;5087996;28;8831;-73
2023/09/01 13:33:49;;;;;;;;;13.33;11.33;;;;;;;;5087629;28;8922;-73
2023/09/01 13:36:14;;;;;;;;;6.00;5.00;;;;;;;;5087435;28;8900;-72
2023/09/01 13:38:40;;;;;;;;;7.00;7.00;;;;;;;;5092583;28;9590;-73
2023/09/01 13:41:07;;;;;;;;;11.00;9.00;;;;;;;;5107954;28;8790;-73
2023/09/01 13:43:32;;;;;;;;;8.00;8.00;;;;;;;;5108416;28;8878;-73
2023/09/01 13:46:16;;;;;;;;;14.67;13.67;;;;;;;;5107839;28;9033;-69
2023/09/01 13:48:41;;;;;;;;;6.50;5.75;;;;;;;;5109499;28;8793;-72
2023/09/01 13:51:06;;;;;;;;;16.75;13.75;;;;;;;;5109164;28;8820;-71
2023/09/01 13:53:31;;;;;;;;;9.00;8.33;;;;;;;;5109707;28;8805;-71
2023/09/01 13:55:57;;;;;;;;;13.67;12.33;;;;;;;;5102337;28;9050;-71
2023/09/01 13:58:22;;;;;;;;;3.00;3.00;;;;;;;;5089582;28;8772;-72
2023/09/01 14:00:47;;;;;;;;;5.67;4.33;;;;;;;;5092734;28;8792;-70
2023/09/01 14:03:13;;;;;;;;;13.00;10.67;;;;;;;;5093286;28;9502;-70
2023/09/01 14:05:38;;;;;;;;;6.67;6.67;;;;;;;;5093298;28;8841;-70
2023/09/01 14:08:03;;;;;;;;;9.67;8.33;;;;;;;;5093158;28;8916;-70
2023/09/01 14:10:28;;;;;;;;;9.67;9.67;;;;;;;;5104218;28;8822;-70
2023/09/01 14:12:54;;;;;;;;;9.00;9.00;;;;;;;;5090358;28;8828;-71
2023/09/01 14:15:19;;;;;;;;;7.00;6.50;;;;;;;;5091136;28;8934;-72
2023/09/01 14:17:45;;;;;;;;;7.33;6.67;;;;;;;;5092364;28;8821;-72
2023/09/01 14:20:10;;;;;;;;;7.00;7.00;;;;;;;;5092712;28;8807;-72
2023/09/01 14:22:35;;;;;;;;;6.33;5.00;;;;;;;;5092789;28;8849;-71
2023/09/01 14:25:01;;;;;;;;;5.67;5.67;;;;;;;;5092638;28;8818;-69
2023/09/01 14:27:26;;;;;;;;;9.00;8.33;;;;;;;;5092598;28;8784;-69
2023/09/01 14:29:51;;;;;;;;;9.67;9.33;;;;;;;;5092839;28;8780;-72
2023/09/01 14:32:16;;;;;;;;;10.00;10.00;;;;;;;;5092693;28;8815;-72
2023/09/01 14:34:43;;;;;;;;;7.67;6.33;;;;;;;;5092936;28;9608;-71
2023/09/01 14:37:09;;;;;;;;;5.00;5.00;;;;;;;;5092675;28;8772;-71
2023/09/01 14:39:34;;;;;;;;;6.00;4.33;;;;;;;;5105126;28;8905;-72
2023/09/01 14:41:59;;;;;;;;;8.67;7.00;;;;;;;;5112878;28;8778;-71
2023/09/01 14:44:24;;;;;;;;;9.00;6.33;;;;;;;;5113335;28;8781;-72
2023/09/01 14:46:50;;;;;;;;;12.00;11.33;;;;;;;;5113024;28;8773;-72
2023/09/01 14:49:15;;;;;;;;;8.67;8.67;;;;;;;;5113001;28;8796;-71
2023/09/01 14:51:40;;;;;;;;;4.67;4.67;;;;;;;;5112696;27;8785;-71
2023/09/01 14:54:06;;;;;;;;;10.67;10.00;;;;;;;;5112754;28;8904;-71
2023/09/01 14:56:31;;;;;;;;;12.33;11.00;;;;;;;;5112751;28;8781;-72
2023/09/01 14:58:56;;;;;;;;;4.33;4.33;;;;;;;;5112874;28;8906;-71
2023/09/01 15:01:22;;;;;;;;;12.00;11.00;;;;;;;;5112770;28;8762;-72
2023/09/01 15:03:47;;;;;;;;;9.33;9.33;;;;;;;;5112771;28;8793;-72
2023/09/01 15:06:12;;;;;;;;;8.00;6.00;;;;;;;;5112393;28;8777;-75
2023/09/01 15:08:37;;;;;;;;;8.33;8.33;;;;;;;;5112667;28;8801;-77
2023/09/01 15:11:03;;;;;;;;;4.67;4.67;;;;;;;;5112261;28;8813;-75
2023/09/01 15:13:28;;;;;;;;;4.67;4.67;;;;;;;;5112464;28;8959;-75
2023/09/01 15:15:54;;;;;;;;;9.67;8.67;;;;;;;;5112379;28;8817;-73
2023/09/01 15:18:19;;;;;;;;;10.50;8.50;;;;;;;;5112379;28;8816;-79
2023/09/01 15:20:44;;;;;;;;;8.00;7.00;;;;;;;;5111578;28;8794;-76
2023/09/01 15:23:10;;;;;;;;;5.00;5.00;;;;;;;;5111942;28;8793;-77
2023/09/01 15:25:36;;;;;;;;;8.00;8.00;;;;;;;;5111882;28;8854;-75
2023/09/01 15:28:01;;;;;;;;;7.00;7.00;;;;;;;;5111892;28;8766;-76
2023/09/01 15:30:27;;;;;;;;;6.33;6.33;;;;;;;;5111887;28;11048;-75
2023/09/01 15:32:52;;;;;;;;;3.67;3.00;;;;;;;;5111745;28;8812;-76
2023/09/01 15:35:19;;;;;;;;;10.33;8.67;;;;;;;;5111644;28;8797;-77
2023/09/01 15:37:45;;;;;;;;;9.67;8.00;;;;;;;;5111800;28;8776;-77
2023/09/01 15:40:10;;;;;;;;;8.67;8.67;;;;;;;;5111637;28;8922;-78
2023/09/01 15:42:35;;;;;;;;;8.33;7.33;;;;;;;;5111500;28;8793;-84
2023/09/01 15:45:01;;;;;;;;;8.00;8.00;;;;;;;;5098358;28;8835;-82
2023/09/01 15:47:26;;;;;;;;;7.00;5.00;;;;;;;;5090990;28;8800;-84
2023/09/01 15:49:51;;;;;;;;;5.00;4.33;;;;;;;;5090913;28;8815;-80
2023/09/01 15:52:17;;;;;;;;;7.67;7.67;;;;;;;;5090863;28;8851;-80
2023/09/01 15:54:42;;;;;;;;;8.00;8.00;;;;;;;;5090823;28;8882;-84
2023/09/01 15:57:07;;;;;;;;;5.33;4.00;;;;;;;;5090664;28;8804;-84
2023/09/01 15:59:32;;;;;;;;;7.33;6.33;;;;;;;;5090660;28;8823;-82
2023/09/01 16:01:58;;;;;;;;;6.33;4.67;;;;;;;;5090579;28;8779;-81
2023/09/01 16:04:24;;;;;;;;;7.75;7.75;;;;;;;;5090547;28;8804;-80
2023/09/01 16:06:49;;;;;;;;;7.33;7.00;;;;;;;;5090686;28;8784;-77
2023/09/01 16:09:14;;;;;;;;;3.00;3.00;;;;;;;;5100525;28;8774;-77
2023/09/01 16:11:39;;;;;;;;;6.33;6.33;;;;;;;;5110787;28;8793;-75
2023/09/01 16:14:05;;;;;;;;;7.00;7.00;;;;;;;;5110380;28;8890;-73
2023/09/01 16:16:30;;;;;;;;;10.33;9.00;;;;;;;;5110824;28;8805;-73
